Time;durP1;ratioP1;P1;durP2;ratioP2;P2;SDS_P1;SDS_P2;PMS_P1;PMS_P2;Temp;Humidity;BMP_temperature;BMP_pressure;BME280_temperature;BME280_humidity;BME280_pressure;Samples;Min_cycle;Max_cycle;Signal;HPM_P1;HPM_P2
2024/01/28 00:03:49;;;;;;;9.57;3.20;;;3.90;1.00;;;;;;8397996;28;20530;-61
2024/01/28 00:07:50;;;;;;;11.17;2.97;;;3.90;3.30;;;;;;8394248;28;20379;-61
2024/01/28 00:11:51;;;;;;;8.07;2.77;;;3.80;10.00;;;;;;8394860;28;20177;-62
2024/01/28 00:15:55;;;;;;;10.77;2.50;;;3.70;14.10;;;;;;8392796;28;20268;-62
2024/01/28 00:19:56;;;;;;;12.13;3.17;;;3.70;24.00;;;;;;8391911;28;20185;-63
2024/01/28 00:23:59;;;;;;;11.43;2.57;;;3.60;38.40;;;;;;8392984;28;20215;-62
2024/01/28 00:28:00;;;;;;;12.83;3.20;;;3.60;52.90;;;;;;8395460;28;20172;-63
2024/01/28 00:32:01;;;;;;;4.43;2.50;;;3.50;67.10;;;;;;8393474;28;20273;-62
2024/01/28 00:36:02;;;;;;;13.77;2.90;;;3.40;77.40;;;;;;8396135;28;20319;-62
2024/01/28 00:40:03;;;;;;;12.47;3.20;;;3.40;91.40;;;;;;8398519;28;20264;-61
2024/01/28 00:44:04;;;;;;;10.17;2.87;;;3.20;97.70;;;;;;8397655;28;20218;-61
2024/01/28 00:48:05;;;;;;;9.93;2.57;;;3.10;99.90;;;;;;8396492;28;20187;-61
2024/01/28 00:52:07;;;;;;;10.40;3.27;;;3.10;99.90;;;;;;8393756;28;20192;-61
2024/01/28 00:56:08;;;;;;;8.10;2.80;;;3.00;99.90;;;;;;8393743;28;20184;-61
2024/01/28 01:00:10;;;;;;;6.90;2.13;;;3.00;99.90;;;;;;8393891;28;20221;-61
2024/01/28 01:04:11;;;;;;;8.67;2.77;;;2.90;99.90;;;;;;8391174;28;20216;-61
2024/01/28 01:08:11;;;;;;;9.60;3.07;;;2.90;99.90;;;;;;8396300;28;20208;-61
2024/01/28 01:12:12;;;;;;;12.33;2.70;;;2.80;99.90;;;;;;8400779;28;20185;-62
2024/01/28 01:16:13;;;;;;;11.87;3.30;;;2.80;99.90;;;;;;8393625;28;20252;-61
2024/01/28 01:20:14;;;;;;;14.87;3.63;;;2.70;99.90;;;;;;8397934;28;20266;-62
2024/01/28 01:24:14;;;;;;;9.50;2.80;;;2.80;99.90;;;;;;8391105;28;20208;-61
2024/01/28 01:28:15;;;;;;;10.30;2.50;;;2.80;99.90;;;;;;8393560;28;20173;-62
2024/01/28 01:32:16;;;;;;;8.60;2.83;;;2.80;99.90;;;;;;8398299;28;20210;-61
2024/01/28 01:36:17;;;;;;;11.40;3.17;;;2.80;99.90;;;;;;8396413;28;20197;-61
2024/01/28 01:40:17;;;;;;;9.80;3.73;;;2.90;99.90;;;;;;8392731;28;20189;-61
2024/01/28 01:44:20;;;;;;;9.97;2.60;;;2.90;99.90;;;;;;8402464;28;20228;-60
2024/01/28 01:48:21;;;;;;;6.80;2.63;;;2.90;99.90;;;;;;8397163;28;20185;-60
2024/01/28 01:52:22;;;;;;;8.03;2.70;;;2.90;99.90;;;;;;8396321;28;20204;-60
2024/01/28 01:56:24;;;;;;;9.03;3.47;;;2.90;99.90;;;;;;8393450;28;20249;-61
2024/01/28 02:00:26;;;;;;;10.30;3.00;;;2.80;99.90;;;;;;8395780;28;20204;-60
2024/01/28 02:04:26;;;;;;;9.27;2.20;;;2.60;99.90;;;;;;8394917;28;20204;-60
2024/01/28 02:08:28;;;;;;;8.50;2.97;;;2.40;99.90;;;;;;8394608;28;20181;-59
2024/01/28 02:12:30;;;;;;;7.20;3.03;;;2.20;99.90;;;;;;8391706;28;20197;-60
2024/01/28 02:16:31;;;;;;;13.30;2.97;;;2.00;99.90;;;;;;8398424;28;20542;-60
2024/01/28 02:20:31;;;;;;;8.60;2.83;;;2.00;99.90;;;;;;8394533;28;20276;-60
2024/01/28 02:24:32;;;;;;;10.13;3.43;;;2.00;99.90;;;;;;8394460;28;20205;-60
2024/01/28 02:28:33;;;;;;;13.00;3.80;;;2.10;99.90;;;;;;8395749;28;20173;-60
2024/01/28 02:32:34;;;;;;;12.17;3.23;;;2.20;1.00;;;;;;8394764;28;20204;-60
2024/01/28 02:36:35;;;;;;;11.57;3.40;;;2.30;1.00;;;;;;8392905;28;20299;-60
2024/01/28 02:40:35;;;;;;;9.37;3.20;;;2.40;1.00;;;;;;8394414;28;20187;-60
2024/01/28 02:44:36;;;;;;;9.20;3.50;;;2.40;99.90;;;;;;8392151;28;20626;-61
2024/01/28 02:48:37;;;;;;;10.93;3.57;;;2.30;99.90;;;;;;8394288;28;20189;-61
2024/01/28 02:52:38;;;;;;;9.23;3.00;;;2.20;99.90;;;;;;8396226;28;20189;-61
2024/01/28 02:56:39;;;;;;;14.07;3.80;;;2.00;99.90;;;;;;8403215;28;20204;-61
2024/01/28 03:00:39;;;;;;;13.13;3.53;;;1.90;1.00;;;;;;8394759;28;20223;-61
2024/01/28 03:04:40;;;;;;;10.13;2.93;;;1.70;1.00;;;;;;8393390;28;20212;-61
2024/01/28 03:08:41;;;;;;;14.23;3.40;;;1.70;56.50;;;;;;8392143;28;20181;-59
2024/01/28 03:12:41;;;;;;;14.10;3.90;;;1.60;99.90;;;;;;8392013;28;20182;-60
2024/01/28 03:16:42;;;;;;;11.47;3.60;;;1.50;99.90;;;;;;8390919;28;20185;-60
2024/01/28 03:20:43;;;;;;;8.60;3.17;;;1.30;99.90;;;;;;8388989;28;20230;-61
2024/01/28 03:24:43;;;;;;;7.80;2.93;;;1.20;99.90;;;;;;8391959;28;20204;-61
2024/01/28 03:28:44;;;;;;;5.73;2.53;;;1.10;99.90;;;;;;8387733;28;20234;-60
2024/01/28 03:32:45;;;;;;;6.33;2.93;;;1.00;1.00;;;;;;8394705;28;20241;-61
2024/01/28 03:36:46;;;;;;;10.50;3.13;;;0.90;1.00;;;;;;8389458;28;20201;-61
2024/01/28 03:40:47;;;;;;;8.57;2.97;;;1.00;79.50;;;;;;8393680;28;20272;-61
2024/01/28 03:44:47;;;;;;;8.67;2.70;;;1.20;99.90;;;;;;8390738;28;20213;-61
2024/01/28 03:48:48;;;;;;;11.77;3.60;;;1.40;1.00;;;;;;8390375;28;20259;-61
2024/01/28 03:52:49;;;;;;;12.80;3.43;;;1.60;1.00;;;;;;8390208;28;20196;-61
2024/01/28 03:56:49;;;;;;;12.43;4.07;;;1.80;1.00;;;;;;8391379;28;20188;-61
2024/01/28 04:00:50;;;;;;;11.07;3.80;;;2.00;99.90;;;;;;8394010;28;20232;-61
2024/01/28 04:04:51;;;;;;;12.27;4.27;;;2.10;1.00;;;;;;8397355;28;20219;-61
2024/01/28 04:08:55;;;;;;;9.70;4.20;;;2.20;36.70;;;;;;8392043;28;20239;-61
2024/01/28 04:12:56;;;;;;;12.53;4.33;;;2.30;1.00;;;;;;8393969;28;20177;-61
2024/01/28 04:16:57;;;;;;;11.50;4.10;;;2.40;1.00;;;;;;8392579;28;20200;-61
2024/01/28 04:20:57;;;;;;;8.80;3.33;;;2.40;99.90;;;;;;8393501;28;20251;-62
2024/01/28 04:24:58;;;;;;;13.33;4.00;;;2.50;99.90;;;;;;8401435;28;20227;-60
2024/01/28 04:29:00;;;;;;;7.17;3.80;;;2.50;99.90;;;;;;8403939;28;20190;-60
2024/01/28 04:33:00;;;;;;;13.70;3.80;;;2.50;99.90;;;;;;8395378;28;20192;-61
2024/01/28 04:37:01;;;;;;;16.80;4.67;;;2.50;99.90;;;;;;8401223;28;20231;-59
2024/01/28 04:41:02;;;;;;;6.57;3.10;;;2.50;99.90;;;;;;8399449;28;20392;-60
2024/01/28 04:45:03;;;;;;;11.30;3.67;;;2.40;99.90;;;;;;8395416;28;20212;-59
2024/01/28 04:49:04;;;;;;;15.23;3.77;;;2.40;99.90;;;;;;8395380;28;20262;-59
2024/01/28 04:53:05;;;;;;;12.20;4.27;;;2.40;99.90;;;;;;8400562;28;20197;-59
2024/01/28 04:57:05;;;;;;;11.50;4.00;;;2.40;99.90;;;;;;8396056;28;20193;-61
2024/01/28 05:01:07;;;;;;;11.47;4.37;;;2.30;99.90;;;;;;8394860;28;20236;-60
2024/01/28 05:05:08;;;;;;;18.13;4.57;;;2.30;99.90;;;;;;8395937;28;20267;-61
2024/01/28 05:09:10;;;;;;;10.23;4.13;;;2.30;99.90;;;;;;8396688;28;20217;-60
2024/01/28 05:13:11;;;;;;;11.67;4.17;;;2.20;99.90;;;;;;8397946;28;20183;-59
2024/01/28 05:17:12;;;;;;;8.33;4.27;;;2.10;99.90;;;;;;8396653;28;20227;-60
2024/01/28 05:21:13;;;;;;;12.03;3.83;;;2.10;99.90;;;;;;8393919;28;20193;-60
2024/01/28 05:25:13;;;;;;;9.20;4.30;;;2.10;99.90;;;;;;8400365;28;20215;-61
2024/01/28 05:29:14;;;;;;;7.40;4.30;;;2.00;99.90;;;;;;8397256;28;20188;-61
2024/01/28 05:33:15;;;;;;;12.77;3.97;;;2.00;99.90;;;;;;8394386;28;20188;-62
2024/01/28 05:37:16;;;;;;;9.77;4.27;;;2.00;99.90;;;;;;8396182;28;20279;-62
2024/01/28 05:41:17;;;;;;;10.10;4.10;;;2.10;99.90;;;;;;8390815;28;20193;-62
2024/01/28 05:45:17;;;;;;;8.27;3.33;;;2.10;99.90;;;;;;8396345;28;20220;-62
2024/01/28 05:49:18;;;;;;;9.97;3.60;;;2.20;99.90;;;;;;8394640;28;20200;-62
2024/01/28 05:53:19;;;;;;;8.67;4.30;;;2.20;99.90;;;;;;8398549;28;20197;-63
2024/01/28 05:57:20;;;;;;;9.13;3.10;;;2.30;99.90;;;;;;8388607;28;20188;-63
2024/01/28 06:01:21;;;;;;;10.33;3.43;;;2.40;99.90;;;;;;8393516;28;20213;-62
2024/01/28 06:05:21;;;;;;;8.83;3.23;;;2.40;99.90;;;;;;8390144;28;20221;-63
2024/01/28 06:09:22;;;;;;;8.70;3.53;;;2.40;99.90;;;;;;8390580;28;20186;-63
2024/01/28 06:13:23;;;;;;;13.07;3.73;;;2.50;99.90;;;;;;8389383;28;20185;-63
2024/01/28 06:17:23;;;;;;;9.33;3.30;;;2.50;99.90;;;;;;8393578;28;20643;-63
2024/01/28 06:21:24;;;;;;;11.13;3.37;;;2.50;99.90;;;;;;8389643;28;20223;-62
2024/01/28 06:25:25;;;;;;;11.10;3.57;;;2.50;99.90;;;;;;8389714;28;20222;-62
2024/01/28 06:29:26;;;;;;;10.87;3.33;;;2.50;99.90;;;;;;8387232;28;20211;-63
2024/01/28 06:33:27;;;;;;;10.90;3.67;;;2.60;99.90;;;;;;8389624;28;20191;-62
2024/01/28 06:37:28;;;;;;;8.53;3.23;;;2.60;99.90;;;;;;8388178;28;20204;-62
2024/01/28 06:41:29;;;;;;;9.63;4.33;;;2.60;99.90;;;;;;8392864;28;20467;-62
2024/01/28 06:45:29;;;;;;;6.73;4.10;;;2.60;99.90;;;;;;8393655;28;20345;-63
2024/01/28 06:49:30;;;;;;;14.57;5.93;;;2.70;99.90;;;;;;8390092;28;20226;-63
2024/01/28 06:53:31;;;;;;;10.17;5.10;;;2.70;99.90;;;;;;8389347;28;20196;-63
2024/01/28 06:57:31;;;;;;;13.47;5.70;;;2.70;99.90;;;;;;8389595;28;20268;-63
2024/01/28 07:01:39;;;;;;;8.30;4.07;;;2.70;99.90;;;;;;8390182;28;20211;-64
2024/01/28 07:05:40;;;;;;;10.47;4.50;;;2.80;99.90;;;;;;8394620;28;20195;-65
2024/01/28 07:09:41;;;;;;;6.83;3.33;;;2.90;99.90;;;;;;8402022;28;20189;-65
2024/01/28 07:13:42;;;;;;;9.50;4.10;;;3.00;99.90;;;;;;8395948;28;20197;-65
2024/01/28 07:17:42;;;;;;;14.70;4.30;;;3.10;99.90;;;;;;8386633;28;20309;-64
2024/01/28 07:21:44;;;;;;;11.77;4.80;;;3.20;99.90;;;;;;8396054;28;20195;-63
2024/01/28 07:25:45;;;;;;;9.77;4.40;;;3.30;99.90;;;;;;8392738;28;20551;-63
2024/01/28 07:29:46;;;;;;;6.83;3.37;;;3.30;99.90;;;;;;8386312;28;20181;-63
2024/01/28 07:33:47;;;;;;;9.53;3.50;;;3.30;99.90;;;;;;8389979;28;20196;-64
2024/01/28 07:37:48;;;;;;;9.40;3.97;;;3.40;99.90;;;;;;8396130;28;20188;-63
2024/01/28 07:41:48;;;;;;;8.43;3.43;;;3.40;99.90;;;;;;8395071;28;20181;-63
2024/01/28 07:45:50;;;;;;;8.13;4.07;;;3.50;99.90;;;;;;8394179;28;20196;-63
2024/01/28 07:49:51;;;;;;;12.37;4.03;;;3.60;99.90;;;;;;8395944;28;20294;-63
2024/01/28 07:53:51;;;;;;;9.83;3.67;;;3.70;99.90;;;;;;8392083;28;20189;-63
2024/01/28 07:57:53;;;;;;;9.33;3.40;;;3.70;97.60;;;;;;8395743;28;20190;-63
2024/01/28 08:01:54;;;;;;;11.63;3.53;;;3.80;95.00;;;;;;8395142;28;20367;-63
2024/01/28 08:05:55;;;;;;;7.07;3.27;;;3.80;82.60;;;;;;8394656;28;20308;-62
2024/01/28 08:09:55;;;;;;;8.37;3.20;;;3.70;67.90;;;;;;8400166;28;20192;-63
2024/01/28 08:13:56;;;;;;;6.77;2.87;;;3.70;65.20;;;;;;8398826;28;20334;-65
2024/01/28 08:17:57;;;;;;;8.10;2.87;;;3.70;67.20;;;;;;8407432;28;20193;-64
2024/01/28 08:21:58;;;;;;;18.03;7.80;;;3.70;72.60;;;;;;8402008;28;20263;-64
2024/01/28 08:25:59;;;;;;;20.43;7.43;;;3.80;74.30;;;;;;8401487;28;20192;-64
2024/01/28 08:29:59;;;;;;;12.97;4.60;;;3.90;72.50;;;;;;8402705;28;20185;-63
2024/01/28 08:34:00;;;;;;;7.80;3.37;;;4.10;63.60;;;;;;8395781;28;20216;-64
2024/01/28 08:38:01;;;;;;;10.50;3.57;;;4.30;33.30;;;;;;8400794;28;20397;-64
2024/01/28 08:42:02;;;;;;;14.63;4.03;;;4.40;11.80;;;;;;8397993;28;20239;-64
2024/01/28 08:46:03;;;;;;;13.90;3.90;;;4.60;1.00;;;;;;8396644;28;20413;-64
2024/01/28 08:50:05;;;;;;;12.60;3.63;;;4.70;1.00;;;;;;8398271;28;20258;-63
2024/01/28 08:54:05;;;;;;;11.70;3.27;;;4.80;1.00;;;;;;8401319;28;20188;-64
2024/01/28 08:58:06;;;;;;;10.97;3.27;;;4.90;1.00;;;;;;8395949;28;20188;-64
2024/01/28 09:02:07;;;;;;;7.67;3.13;;;5.00;1.00;;;;;;8400960;28;20293;-64
2024/01/28 09:06:08;;;;;;;10.00;3.50;;;5.10;1.00;;;;;;8396959;28;20577;-63
2024/01/28 09:10:09;;;;;;;8.10;3.13;;;5.20;1.00;;;;;;8403275;28;20192;-63
2024/01/28 09:14:10;;;;;;;8.10;2.57;;;5.40;1.00;;;;;;8397764;28;20196;-64
2024/01/28 09:18:10;;;;;;;8.13;3.37;;;5.50;1.00;;;;;;8404565;28;20189;-63
2024/01/28 09:22:11;;;;;;;10.53;3.43;;;5.60;1.00;;;;;;8394996;28;20215;-63
2024/01/28 09:26:13;;;;;;;7.43;2.80;;;5.70;1.00;;;;;;8391204;28;20196;-62
2024/01/28 09:30:14;;;;;;;6.80;2.97;;;5.80;1.00;;;;;;8394306;28;20192;-63
2024/01/28 09:34:15;;;;;;;7.37;3.07;;;5.90;1.00;;;;;;8403664;28;20200;-64
2024/01/28 09:38:16;;;;;;;9.83;3.03;;;6.00;1.00;;;;;;8408600;28;20189;-64
2024/01/28 09:42:30;;;;;;;7.27;3.10;;;6.20;1.00;;;;;;8403501;28;20317;-64
2024/01/28 09:46:31;;;;;;;8.03;2.47;;;6.30;1.00;;;;;;8416029;27;20232;-64
2024/01/28 09:50:32;;;;;;;6.83;2.10;;;6.40;1.00;;;;;;8399324;28;20180;-64
2024/01/28 09:54:35;;;;;;;5.60;2.33;;;6.40;1.00;;;;;;8403171;28;20185;-64
2024/01/28 09:58:39;;;;;;;6.27;1.90;;;6.60;1.00;;;;;;8399551;28;20213;-64
2024/01/28 10:02:40;;;;;;;6.33;2.13;;;6.70;1.00;;;;;;8402496;28;20208;-65
2024/01/28 10:06:41;;;;;;;7.77;2.10;;;6.80;1.00;;;;;;8398347;28;20192;-64
2024/01/28 10:10:42;;;;;;;6.03;2.03;;;6.90;1.00;;;;;;8401266;28;20221;-64
2024/01/28 10:14:51;;;;;;;5.83;1.97;;;7.00;1.00;;;;;;8398263;28;20188;-64
2024/01/28 10:18:52;;;;;;;8.50;2.47;;;7.00;1.00;;;;;;8397005;28;20211;-64
2024/01/28 10:22:53;;;;;;;6.37;2.20;;;7.10;1.00;;;;;;8397136;28;20217;-64
2024/01/28 10:26:57;;;;;;;4.47;1.27;;;7.20;1.00;;;;;;8408239;28;20271;-65
2024/01/28 10:30:58;;;;;;;3.80;1.70;;;7.30;1.00;;;;;;8401106;28;20178;-64
2024/01/28 10:34:59;;;;;;;6.83;1.50;;;7.40;1.00;;;;;;8394724;28;20233;-64
2024/01/28 10:39:03;;;;;;;3.83;1.40;;;7.40;1.00;;;;;;8396102;28;20244;-64
2024/01/28 10:43:11;;;;;;;6.00;2.00;;;7.50;1.00;;;;;;8399573;28;20829;-63
2024/01/28 10:47:14;;;;;;;4.10;1.50;;;7.60;1.00;;;;;;8387896;28;20191;-63
2024/01/28 10:51:16;;;;;;;7.63;1.70;;;7.70;1.00;;;;;;8394448;28;20409;-63
2024/01/28 10:55:18;;;;;;;5.50;1.37;;;7.70;1.00;;;;;;8388467;28;20185;-64
2024/01/28 10:59:20;;;;;;;3.97;1.53;;;7.80;1.00;;;;;;8391175;28;20200;-65
2024/01/28 11:03:21;;;;;;;5.33;1.80;;;7.80;1.00;;;;;;8390838;28;20277;-63
2024/01/28 11:07:24;;;;;;;4.53;1.73;;;7.70;1.00;;;;;;8387454;28;20197;-63
2024/01/28 11:11:24;;;;;;;2.90;1.63;;;7.70;1.00;;;;;;8390086;28;20185;-63
2024/01/28 11:15:26;;;;;;;4.93;1.50;;;7.80;1.00;;;;;;8397516;28;20656;-64
2024/01/28 11:19:29;;;;;;;4.10;1.40;;;7.80;1.00;;;;;;8388659;28;20211;-65
2024/01/28 11:23:30;;;;;;;5.27;2.00;;;7.90;1.00;;;;;;8393724;28;20207;-64
2024/01/28 11:27:30;;;;;;;4.40;1.80;;;7.80;1.00;;;;;;8404193;28;20275;-64
2024/01/28 11:31:33;;;;;;;5.00;1.27;;;7.90;1.00;;;;;;8389523;28;20189;-64
2024/01/28 11:35:33;;;;;;;4.63;1.47;;;8.00;1.00;;;;;;8389035;28;20208;-64
2024/01/28 11:39:48;;;;;;;8.40;2.37;;;8.10;1.00;;;;;;8389203;28;20326;-63
2024/01/28 11:43:49;;;;;;;6.40;2.10;;;8.10;1.00;;;;;;8395185;28;20269;-63
2024/01/28 11:47:50;;;;;;;12.30;5.30;;;8.10;1.00;;;;;;8386777;28;20267;-63
2024/01/28 11:51:50;;;;;;;5.30;2.47;;;8.10;1.00;;;;;;8388838;28;20185;-64
2024/01/28 11:55:51;;;;;;;2.93;1.20;;;8.30;1.00;;;;;;8386233;28;20197;-64
2024/01/28 11:59:52;;;;;;;4.33;1.40;;;8.30;1.00;;;;;;8390417;28;20216;-63
2024/01/28 12:03:56;;;;;;;3.40;1.10;;;8.30;1.00;;;;;;8387618;28;20209;-64
2024/01/28 12:07:58;;;;;;;3.20;1.00;;;8.30;1.00;;;;;;8387430;28;20181;-64
2024/01/28 12:11:58;;;;;;;5.63;1.50;;;8.30;1.00;;;;;;8392301;28;20199;-64
2024/01/28 12:15:59;;;;;;;4.00;1.57;;;8.40;1.00;;;;;;8386904;28;20316;-63
2024/01/28 12:20:00;;;;;;;8.93;3.47;;;8.40;1.00;;;;;;8391608;28;20186;-63
2024/01/28 12:24:02;;;;;;;11.17;3.90;;;8.50;1.00;;;;;;8394941;28;20213;-64
2024/01/28 12:28:03;;;;;;;3.20;1.50;;;8.50;1.00;;;;;;8386426;28;20569;-64
2024/01/28 12:32:04;;;;;;;5.13;1.40;;;8.50;1.00;;;;;;8392361;28;20332;-64
2024/01/28 12:36:06;;;;;;;3.90;1.40;;;8.60;1.00;;;;;;8391430;28;20193;-64
2024/01/28 12:40:08;;;;;;;3.47;1.40;;;8.60;1.00;;;;;;8392052;28;20190;-64
2024/01/28 12:44:09;;;;;;;6.47;1.80;;;8.60;1.00;;;;;;8389634;28;20220;-64
2024/01/28 12:48:09;;;;;;;5.20;1.40;;;8.50;1.00;;;;;;8392423;28;20419;-64
2024/01/28 12:52:10;;;;;;;6.53;1.47;;;8.60;1.00;;;;;;8394409;28;20192;-64
2024/01/28 12:56:11;;;;;;;3.83;1.50;;;8.50;1.00;;;;;;8395513;28;20184;-64
2024/01/28 13:00:14;;;;;;;5.07;1.60;;;8.50;1.00;;;;;;8394229;28;20245;-64
2024/01/28 13:04:15;;;;;;;4.00;1.50;;;8.60;1.00;;;;;;8393548;28;20210;-64
2024/01/28 13:08:15;;;;;;;2.77;1.30;;;8.50;1.00;;;;;;8390785;28;20304;-64
2024/01/28 13:12:16;;;;;;;5.37;1.57;;;8.50;1.00;;;;;;8394027;28;20190;-64
2024/01/28 13:16:17;;;;;;;6.70;2.03;;;8.50;1.00;;;;;;8390711;28;20208;-64
2024/01/28 13:20:19;;;;;;;5.97;2.13;;;8.50;1.00;;;;;;8389212;28;20190;-63
2024/01/28 13:24:20;;;;;;;1.67;1.30;;;8.50;1.00;;;;;;8397476;28;20280;-64
2024/01/28 13:28:20;;;;;;;3.57;1.70;;;8.50;1.00;;;;;;8397095;28;20215;-64
2024/01/28 13:32:21;;;;;;;4.63;1.53;;;8.50;1.00;;;;;;8399009;28;20192;-65
2024/01/28 13:36:22;;;;;;;5.10;1.40;;;8.40;1.00;;;;;;8401502;28;20194;-65
2024/01/28 13:40:23;;;;;;;3.17;1.43;;;8.40;1.00;;;;;;8399569;28;20189;-65
2024/01/28 13:44:24;;;;;;;6.07;1.73;;;8.40;1.00;;;;;;8401668;28;20204;-65
2024/01/28 13:48:25;;;;;;;5.07;1.77;;;8.40;1.00;;;;;;8407937;28;20196;-66
2024/01/28 13:52:27;;;;;;;3.17;1.40;;;8.40;1.00;;;;;;8399617;28;20244;-65
2024/01/28 13:56:27;;;;;;;4.43;1.40;;;8.30;1.00;;;;;;8398919;28;20193;-66
2024/01/28 14:00:28;;;;;;;5.07;1.90;;;8.20;1.00;;;;;;8403186;28;20215;-66
2024/01/28 14:04:29;;;;;;;3.97;1.43;;;8.20;1.00;;;;;;8396512;28;20237;-65
2024/01/28 14:08:30;;;;;;;6.70;1.97;;;8.10;1.00;;;;;;8400691;28;20233;-67
2024/01/28 14:12:30;;;;;;;8.13;2.03;;;8.10;1.00;;;;;;8396443;28;20299;-65
2024/01/28 14:16:31;;;;;;;4.80;1.97;;;8.00;1.00;;;;;;8396941;28;20268;-65
2024/01/28 14:20:32;;;;;;;4.30;2.03;;;7.90;1.00;;;;;;8397459;28;20192;-65
2024/01/28 14:24:33;;;;;;;5.17;2.30;;;7.90;1.00;;;;;;8397122;28;20204;-64
2024/01/28 14:28:33;;;;;;;6.47;2.60;;;7.80;1.00;;;;;;8396389;28;20181;-64
2024/01/28 14:32:34;;;;;;;5.57;2.00;;;7.70;1.00;;;;;;8400849;28;20177;-64
2024/01/28 14:36:36;;;;;;;6.53;2.10;;;7.60;1.00;;;;;;8400408;28;20251;-64
2024/01/28 14:40:37;;;;;;;4.00;1.80;;;7.50;1.00;;;;;;8403306;28;20237;-65
2024/01/28 14:44:38;;;;;;;6.83;2.30;;;7.40;1.00;;;;;;8402694;28;20302;-63
2024/01/28 14:48:40;;;;;;;8.40;2.30;;;7.30;1.00;;;;;;8396449;28;20185;-64
2024/01/28 14:52:42;;;;;;;4.27;2.20;;;7.20;1.00;;;;;;8398890;28;20185;-64
2024/01/28 14:56:43;;;;;;;4.27;2.00;;;7.10;1.00;;;;;;8398010;28;20192;-64
2024/01/28 15:00:43;;;;;;;6.60;1.93;;;7.00;1.00;;;;;;8398274;28;20204;-63
2024/01/28 15:04:44;;;;;;;4.60;2.00;;;6.80;1.00;;;;;;8403405;28;20236;-64
2024/01/28 15:08:45;;;;;;;4.87;1.60;;;6.60;1.00;;;;;;8392517;28;20169;-64
2024/01/28 15:12:45;;;;;;;4.27;1.97;;;6.50;1.00;;;;;;8395889;28;20262;-64
2024/01/28 15:16:46;;;;;;;4.10;2.00;;;6.30;1.00;;;;;;8391153;28;20195;-64
2024/01/28 15:20:47;;;;;;;3.90;1.80;;;6.10;1.00;;;;;;8405545;28;20181;-64
2024/01/28 15:24:48;;;;;;;4.70;1.50;;;5.80;1.00;;;;;;8400459;28;20216;-64
2024/01/28 15:28:49;;;;;;;2.97;1.70;;;5.40;1.00;;;;;;8398902;28;20188;-64
2024/01/28 15:32:50;;;;;;;2.83;1.23;;;5.10;1.00;;;;;;8397995;28;20176;-63
2024/01/28 15:36:51;;;;;;;3.47;1.57;;;4.80;1.00;;;;;;8387617;28;20232;-64
2024/01/28 15:40:52;;;;;;;2.97;1.57;;;4.50;1.00;;;;;;8388296;28;20189;-63
2024/01/28 15:44:53;;;;;;;7.77;1.73;;;4.10;1.00;;;;;;8390907;28;20383;-63
2024/01/28 15:48:55;;;;;;;3.33;1.43;;;3.80;1.00;;;;;;8388706;28;20208;-64
2024/01/28 15:52:58;;;;;;;3.60;1.70;;;3.50;1.00;;;;;;8393419;28;20223;-63
2024/01/28 15:56:59;;;;;;;3.10;1.50;;;3.30;1.00;;;;;;8397393;28;20185;-63
2024/01/28 16:01:00;;;;;;;4.90;2.00;;;3.00;1.00;;;;;;8398616;28;20224;-64
2024/01/28 16:05:01;;;;;;;4.43;1.77;;;2.70;1.00;;;;;;8395203;28;20226;-62
2024/01/28 16:09:02;;;;;;;3.93;1.63;;;2.50;1.00;;;;;;8396440;28;20191;-62
2024/01/28 16:13:03;;;;;;;4.40;1.50;;;2.30;1.00;;;;;;8394983;28;20200;-62
2024/01/28 16:17:04;;;;;;;3.67;1.60;;;2.10;1.00;;;;;;8399082;28;20218;-62
2024/01/28 16:21:05;;;;;;;3.83;1.93;;;2.00;10.40;;;;;;8391092;28;20185;-62
2024/01/28 16:25:06;;;;;;;4.47;2.20;;;1.80;20.90;;;;;;8394182;28;20360;-62
2024/01/28 16:29:08;;;;;;;8.40;2.37;;;1.60;31.50;;;;;;8395532;28;20181;-62
2024/01/28 16:33:08;;;;;;;5.50;2.13;;;1.40;51.30;;;;;;8396658;28;20185;-61
2024/01/28 16:37:09;;;;;;;3.00;1.83;;;1.20;90.10;;;;;;8392619;28;20492;-62
2024/01/28 16:41:10;;;;;;;4.93;1.90;;;1.10;99.90;;;;;;8395081;28;20177;-62
2024/01/28 16:45:14;;;;;;;7.50;1.80;;;0.90;99.90;;;;;;8394408;28;20243;-62
2024/01/28 16:49:14;;;;;;;4.60;1.70;;;0.80;99.90;;;;;;8398224;28;20184;-62
2024/01/28 16:53:17;;;;;;;8.53;2.47;;;0.60;99.90;;;;;;8398064;28;20281;-62
2024/01/28 16:57:18;;;;;;;5.70;2.27;;;0.50;99.90;;;;;;8398838;28;20275;-62
2024/01/28 17:01:19;;;;;;;4.47;2.33;;;0.40;99.90;;;;;;8393703;28;20269;-62
2024/01/28 17:05:19;;;;;;;5.77;3.13;;;0.30;99.90;;;;;;8397370;28;20514;-61
2024/01/28 17:09:20;;;;;;;13.40;8.43;;;0.30;99.90;;;;;;8400200;28;20216;-61
2024/01/28 17:13:21;;;;;;;23.87;13.93;;;0.30;99.90;;;;;;8394427;28;20181;-61
2024/01/28 17:17:22;;;;;;;35.73;23.27;;;0.30;1.00;;;;;;8392634;28;20367;-61
2024/01/28 17:21:24;;;;;;;28.57;19.53;;;0.20;1.00;;;;;;8396703;28;20185;-61
2024/01/28 17:25:24;;;;;;;23.73;15.03;;;0.20;1.00;;;;;;8393196;28;20231;-64
2024/01/28 17:29:27;;;;;;;11.20;7.60;;;0.10;1.00;;;;;;8391703;28;20181;-62
2024/01/28 17:33:29;;;;;;;9.37;5.73;;;0.00;1.00;;;;;;8394131;28;20185;-61
2024/01/28 17:37:30;;;;;;;10.90;6.07;;;-0.10;1.00;;;;;;8393940;28;20212;-66
2024/01/28 17:41:31;;;;;;;9.27;5.17;;;-0.10;99.90;;;;;;8389972;28;20189;-60
2024/01/28 17:45:32;;;;;;;7.70;3.70;;;-0.20;99.90;;;;;;8394410;28;20299;-63
2024/01/28 17:49:32;;;;;;;9.90;4.60;;;-0.40;99.50;;;;;;8388072;28;20381;-61
2024/01/28 17:53:34;;;;;;;10.00;4.63;;;-0.50;99.90;;;;;;8395909;28;20456;-61
2024/01/28 17:57:35;;;;;;;6.73;3.60;;;-0.60;99.90;;;;;;8389459;28;20180;-62
2024/01/28 18:01:37;;;;;;;7.43;3.30;;;-0.70;99.90;;;;;;8389459;28;20239;-62
2024/01/28 18:05:37;;;;;;;6.33;4.37;;;-0.80;1.00;;;;;;8395189;28;20205;-60
2024/01/28 18:09:38;;;;;;;5.33;3.50;;;-0.90;1.00;;;;;;8392427;28;20516;-61
2024/01/28 18:13:40;;;;;;;9.67;4.60;;;-1.00;1.00;;;;;;8388756;28;20252;-60
2024/01/28 18:17:41;;;;;;;10.77;5.27;;;-1.10;1.00;;;;;;8392401;28;20195;-60
2024/01/28 18:21:42;;;;;;;13.43;5.50;;;-1.20;82.90;;;;;;8385195;28;20260;-60
2024/01/28 18:25:43;;;;;;;11.23;5.83;;;-1.20;99.90;;;;;;8389266;28;20235;-60
2024/01/28 18:29:44;;;;;;;10.37;6.00;;;-1.30;99.90;;;;;;8386849;28;20177;-60
2024/01/28 18:33:45;;;;;;;11.77;6.20;;;-1.30;99.90;;;;;;8391807;28;20193;-61
2024/01/28 18:37:45;;;;;;;9.73;5.53;;;-1.40;1.00;;;;;;8387105;28;20554;-61
2024/01/28 18:41:46;;;;;;;9.47;5.77;;;-1.40;1.00;;;;;;8388817;28;20208;-61
2024/01/28 18:45:47;;;;;;;14.73;7.13;;;-1.50;5.60;;;;;;8390328;28;20674;-62
2024/01/28 18:49:48;;;;;;;17.70;10.10;;;-1.50;99.90;;;;;;8390180;28;20217;-61
2024/01/28 18:53:49;;;;;;;17.53;9.33;;;-1.50;1.00;;;;;;8396209;28;20195;-61
2024/01/28 18:57:50;;;;;;;25.93;13.43;;;-1.40;99.90;;;;;;8388261;28;20192;-62
2024/01/28 19:01:51;;;;;;;24.30;14.37;;;-1.40;1.00;;;;;;8391268;28;20204;-61
2024/01/28 19:05:51;;;;;;;20.03;12.17;;;-1.40;1.00;;;;;;8388036;28;20300;-60
2024/01/28 19:09:52;;;;;;;13.47;7.33;;;-1.50;1.00;;;;;;8394511;28;20191;-61
2024/01/28 19:13:53;;;;;;;11.93;6.43;;;-1.50;99.90;;;;;;8387330;28;20197;-61
2024/01/28 19:17:56;;;;;;;14.50;7.57;;;-1.60;99.90;;;;;;8390938;28;20273;-62
2024/01/28 19:21:58;;;;;;;16.17;7.13;;;-1.80;99.90;;;;;;8393505;28;20215;-61
2024/01/28 19:25:59;;;;;;;12.80;6.10;;;-1.90;1.00;;;;;;8392899;28;20300;-62
2024/01/28 19:30:00;;;;;;;10.47;6.13;;;-2.00;99.90;;;;;;8399441;28;20189;-59
2024/01/28 19:34:01;;;;;;;13.40;6.40;;;-2.10;99.90;;;;;;8401506;28;20217;-61
2024/01/28 19:38:02;;;;;;;11.60;6.00;;;-2.20;99.90;;;;;;8401587;28;20203;-62
2024/01/28 19:42:06;;;;;;;11.10;6.17;;;-2.30;99.90;;;;;;8401922;28;20192;-60
2024/01/28 19:46:07;;;;;;;13.13;6.67;;;-2.40;99.90;;;;;;8397947;28;20195;-60
2024/01/28 19:50:11;;;;;;;12.17;7.80;;;-2.40;1.00;;;;;;8402992;28;20186;-61
2024/01/28 19:54:12;;;;;;;21.87;9.70;;;-2.50;99.90;;;;;;8403964;28;20194;-60
2024/01/28 19:58:15;;;;;;;18.30;9.60;;;-2.50;99.90;;;;;;8400145;28;20186;-61
2024/01/28 20:02:17;;;;;;;19.67;9.30;;;-2.50;15.10;;;;;;8396209;28;20186;-59
2024/01/28 20:06:19;;;;;;;18.30;9.43;;;-2.60;99.90;;;;;;8400848;28;20191;-61
2024/01/28 20:10:21;;;;;;;23.10;11.00;;;-2.60;99.90;;;;;;8396046;28;20177;-61
2024/01/28 20:14:22;;;;;;;22.17;10.37;;;-2.70;99.90;;;;;;8397042;28;20184;-60
2024/01/28 20:18:25;;;;;;;25.17;11.27;;;-2.80;99.90;;;;;;8400640;28;20273;-61
2024/01/28 20:22:26;;;;;;;21.23;10.60;;;-2.90;99.90;;;;;;8393602;28;20210;-61
2024/01/28 20:26:27;;;;;;;22.83;11.97;;;-2.90;99.90;;;;;;8395132;28;20211;-60
2024/01/28 20:30:31;;;;;;;29.47;14.03;;;-3.00;99.90;;;;;;8396365;28;20173;-61
2024/01/28 20:34:32;;;;;;;30.27;16.03;;;-3.00;1.00;;;;;;8396670;28;20193;-61
2024/01/28 20:38:34;;;;;;;36.57;18.00;;;-3.00;99.90;;;;;;8397805;28;20184;-61
2024/01/28 20:42:42;;;;;;;32.67;16.70;;;-3.10;82.30;;;;;;8392004;28;20303;-60
2024/01/28 20:46:43;;;;;;;28.13;13.63;;;-3.10;1.00;;;;;;8395301;28;20201;-60
2024/01/28 20:50:43;;;;;;;23.97;13.40;;;-3.10;99.90;;;;;;8384186;28;20192;-60
2024/01/28 20:54:44;;;;;;;25.33;13.30;;;-3.20;1.00;;;;;;8391790;28;20219;-61
2024/01/28 20:58:45;;;;;;;26.30;13.53;;;-3.20;81.00;;;;;;8390885;28;20214;-61
2024/01/28 21:02:46;;;;;;;29.57;14.70;;;-3.30;58.50;;;;;;8390113;28;20243;-61
2024/01/28 21:06:48;;;;;;;26.93;13.43;;;-3.40;77.80;;;;;;8392509;28;20186;-62
2024/01/28 21:10:48;;;;;;;23.13;12.27;;;-3.40;99.90;;;;;;8395495;28;20182;-62